DAL1083 KATL-KRSW
Flight info
| Callsign | DAL1083 |
|---|---|
| Flight time | 1h 15m |
| Altitude | 34000 |
| Route | BANNG3 LUCKK HONID/N0465F350 Q81 NICKI/N0466F340 PLYER TYNEE4 |
| Aircraft | B739/M-SDE2E3FGHIRWXY/LB1 |
Departure
| Time | 2026-05-07 19:23 |
|---|---|
| Airport | Hartsfield Jackson Atlanta International Airport (KATL) |
Arrival
| Time | 2026-05-07 20:39 |
|---|---|
| Airport | Southwest Florida International Airport (KRSW) |
| Time | Latitude | Longitude | Altitude | Speed | Heading |
|---|---|---|---|---|---|
| 2026-05-07 18:49 | 33.63753 | -84.43529 | 1005 ft | 0 kts | 301° |
| 2026-05-07 19:13 | 33.63741 | -84.43505 | 1005 ft | 4 kts | 295° |
| 2026-05-07 19:13 | 33.63736 | -84.43477 | 1005 ft | 4 kts | 248° |
| 2026-05-07 19:13 | 33.63751 | -84.43459 | 1005 ft | 3 kts | 185° |
| 2026-05-07 19:14 | 33.63755 | -84.43458 | 1005 ft | 1 kts | 180° |
| 2026-05-07 19:16 | 33.63743 | -84.43458 | 1005 ft | 4 kts | 180° |
| 2026-05-07 19:16 | 33.63705 | -84.43456 | 1005 ft | 7 kts | 168° |
| 2026-05-07 19:16 | 33.63668 | -84.43415 | 1005 ft | 8 kts | 111° |
| 2026-05-07 19:17 | 33.63664 | -84.43338 | 1005 ft | 10 kts | 90° |
| 2026-05-07 19:17 | 33.63664 | -84.43238 | 1005 ft | 13 kts | 90° |
| 2026-05-07 19:17 | 33.63664 | -84.43123 | 1005 ft | 14 kts | 90° |
| 2026-05-07 19:17 | 33.63664 | -84.43011 | 1005 ft | 13 kts | 90° |
| 2026-05-07 19:18 | 33.63664 | -84.42899 | 1005 ft | 14 kts | 90° |
| 2026-05-07 19:18 | 33.63662 | -84.42772 | 1005 ft | 15 kts | 96° |
| 2026-05-07 19:18 | 33.63655 | -84.42647 | 1006 ft | 15 kts | 90° |
| 2026-05-07 19:18 | 33.63655 | -84.42524 | 1006 ft | 15 kts | 90° |
| 2026-05-07 19:19 | 33.63655 | -84.42391 | 1006 ft | 16 kts | 90° |
| 2026-05-07 19:19 | 33.63655 | -84.42264 | 1006 ft | 15 kts | 90° |
| 2026-05-07 19:19 | 33.63628 | -84.42146 | 1006 ft | 15 kts | 120° |
| 2026-05-07 19:19 | 33.63584 | -84.42041 | 1006 ft | 14 kts | 101° |
| 2026-05-07 19:20 | 33.63581 | -84.41925 | 1005 ft | 15 kts | 90° |
| 2026-05-07 19:20 | 33.63581 | -84.41788 | 1005 ft | 18 kts | 90° |
| 2026-05-07 19:20 | 33.63581 | -84.41634 | 1005 ft | 18 kts | 90° |
| 2026-05-07 19:20 | 33.63581 | -84.41484 | 1004 ft | 18 kts | 90° |
| 2026-05-07 19:21 | 33.63581 | -84.41339 | 1004 ft | 17 kts | 90° |
| 2026-05-07 19:21 | 33.63581 | -84.41201 | 1005 ft | 16 kts | 90° |
| 2026-05-07 19:21 | 33.63581 | -84.41066 | 1005 ft | 16 kts | 90° |
| 2026-05-07 19:21 | 33.63581 | -84.40957 | 1005 ft | 10 kts | 91° |
| 2026-05-07 19:22 | 33.63536 | -84.40908 | 1006 ft | 9 kts | 175° |
| 2026-05-07 19:22 | 33.63475 | -84.40924 | 1006 ft | 9 kts | 231° |
| 2026-05-07 19:22 | 33.63471 | -84.41004 | 1006 ft | 12 kts | 270° |
| 2026-05-07 19:22 | 33.63471 | -84.41303 | 1005 ft | 69 kts | 270° |
| 2026-05-07 19:23 | 33.63471 | -84.42142 | 1005 ft | 127 kts | 270° |
| 2026-05-07 19:23 | 33.63464 | -84.43359 | 1115 ft | 160 kts | 272° |
| 2026-05-07 19:23 | 33.63459 | -84.44706 | 1738 ft | 163 kts | 273° |
| 2026-05-07 19:23 | 33.63452 | -84.46072 | 2393 ft | 165 kts | 273° |
| 2026-05-07 19:24 | 33.63452 | -84.47534 | 2668 ft | 189 kts | 272° |
| 2026-05-07 19:24 | 33.63451 | -84.49238 | 2812 ft | 214 kts | 271° |
| 2026-05-07 19:24 | 33.63449 | -84.51108 | 3099 ft | 237 kts | 271° |
| 2026-05-07 19:24 | 33.63451 | -84.53171 | 3589 ft | 250 kts | 270° |
| 2026-05-07 19:25 | 33.63452 | -84.55244 | 4516 ft | 244 kts | 270° |
| 2026-05-07 19:25 | 33.63452 | -84.57249 | 5389 ft | 244 kts | 270° |
| 2026-05-07 19:25 | 33.63453 | -84.59306 | 6144 ft | 247 kts | 270° |
| 2026-05-07 19:25 | 33.63453 | -84.61375 | 7083 ft | 247 kts | 270° |
| 2026-05-07 19:26 | 33.63425 | -84.63436 | 8017 ft | 248 kts | 263° |
| 2026-05-07 19:26 | 33.62829 | -84.65381 | 8889 ft | 253 kts | 241° |
| 2026-05-07 19:26 | 33.61655 | -84.66980 | 9799 ft | 261 kts | 223° |
| 2026-05-07 19:26 | 33.60087 | -84.68163 | 10547 ft | 270 kts | 218° |
| 2026-05-07 19:27 | 33.58400 | -84.69209 | 11298 ft | 281 kts | 207° |
| 2026-05-07 19:27 | 33.56392 | -84.69538 | 12038 ft | 302 kts | 188° |
| 2026-05-07 19:27 | 33.54248 | -84.69237 | 12737 ft | 316 kts | 182° |
| 2026-05-07 19:27 | 33.52064 | -84.68786 | 13196 ft | 333 kts | 181° |
| 2026-05-07 19:28 | 33.49698 | -84.68269 | 13405 ft | 358 kts | 180° |
| 2026-05-07 19:28 | 33.47162 | -84.67695 | 13581 ft | 382 kts | 180° |
| 2026-05-07 19:28 | 33.44477 | -84.67074 | 13787 ft | 401 kts | 179° |
| 2026-05-07 19:28 | 33.41712 | -84.66421 | 14302 ft | 407 kts | 179° |
| 2026-05-07 19:29 | 33.38941 | -84.65754 | 15016 ft | 405 kts | 179° |
| 2026-05-07 19:29 | 33.36177 | -84.65092 | 15629 ft | 405 kts | 180° |
| 2026-05-07 19:29 | 33.33402 | -84.64435 | 16178 ft | 407 kts | 180° |
| 2026-05-07 19:29 | 33.30610 | -84.63783 | 16719 ft | 409 kts | 181° |
| 2026-05-07 19:30 | 33.27815 | -84.63134 | 17284 ft | 410 kts | 181° |
| 2026-05-07 19:30 | 33.25952 | -84.62703 | 17652 ft | 411 kts | 181° |
| 2026-05-07 19:30 | 33.23142 | -84.62054 | 18210 ft | 412 kts | 182° |
| 2026-05-07 19:30 | 33.20325 | -84.61405 | 18655 ft | 413 kts | 182° |
| 2026-05-07 19:31 | 33.17484 | -84.60752 | 19053 ft | 416 kts | 181° |
| 2026-05-07 19:31 | 33.14633 | -84.60098 | 19442 ft | 419 kts | 181° |
| 2026-05-07 19:31 | 33.11780 | -84.59443 | 19826 ft | 422 kts | 181° |
| 2026-05-07 19:31 | 33.08891 | -84.58779 | 20209 ft | 424 kts | 181° |
| 2026-05-07 19:32 | 33.05985 | -84.58111 | 20590 ft | 426 kts | 181° |
| 2026-05-07 19:32 | 33.03063 | -84.57440 | 20936 ft | 429 kts | 180° |
| 2026-05-07 19:32 | 33.00124 | -84.56765 | 21332 ft | 430 kts | 180° |
| 2026-05-07 19:32 | 32.97169 | -84.56087 | 21708 ft | 433 kts | 180° |
| 2026-05-07 19:33 | 32.94195 | -84.55405 | 22048 ft | 435 kts | 180° |
| 2026-05-07 19:33 | 32.91210 | -84.54722 | 22373 ft | 438 kts | 180° |
| 2026-05-07 19:33 | 32.88247 | -84.54044 | 22685 ft | 440 kts | 180° |
| 2026-05-07 19:33 | 32.85230 | -84.53354 | 23024 ft | 442 kts | 180° |
| 2026-05-07 19:34 | 32.82196 | -84.52660 | 23358 ft | 444 kts | 180° |
| 2026-05-07 19:34 | 32.79152 | -84.51965 | 23642 ft | 447 kts | 180° |
| 2026-05-07 19:34 | 32.76088 | -84.51266 | 23893 ft | 448 kts | 179° |
| 2026-05-07 19:34 | 32.73023 | -84.50566 | 24194 ft | 449 kts | 179° |
| 2026-05-07 19:35 | 32.69947 | -84.49864 | 24458 ft | 450 kts | 179° |
| 2026-05-07 19:35 | 32.66865 | -84.49162 | 24682 ft | 452 kts | 179° |
| 2026-05-07 19:35 | 32.63772 | -84.48458 | 24896 ft | 454 kts | 179° |
| 2026-05-07 19:35 | 32.60660 | -84.47751 | 25128 ft | 456 kts | 180° |
| 2026-05-07 19:36 | 32.57536 | -84.47041 | 25354 ft | 457 kts | 180° |
| 2026-05-07 19:36 | 32.54407 | -84.46330 | 25593 ft | 458 kts | 180° |
| 2026-05-07 19:36 | 32.51313 | -84.45628 | 25816 ft | 460 kts | 180° |
| 2026-05-07 19:36 | 32.48163 | -84.44913 | 25992 ft | 461 kts | 180° |
| 2026-05-07 19:37 | 32.45005 | -84.44198 | 26172 ft | 464 kts | 180° |
| 2026-05-07 19:37 | 32.41824 | -84.43477 | 26376 ft | 465 kts | 179° |
| 2026-05-07 19:37 | 32.38638 | -84.42755 | 26590 ft | 467 kts | 180° |
| 2026-05-07 19:37 | 32.35449 | -84.42033 | 26808 ft | 468 kts | 180° |
| 2026-05-07 19:38 | 32.32249 | -84.41310 | 27007 ft | 469 kts | 180° |
| 2026-05-07 19:38 | 32.29035 | -84.40691 | 27200 ft | 463 kts | 185° |
| 2026-05-07 19:38 | 32.25851 | -84.40536 | 27413 ft | 457 kts | 190° |
| 2026-05-07 19:38 | 32.22674 | -84.40508 | 27612 ft | 457 kts | 190° |
| 2026-05-07 19:39 | 32.19478 | -84.40502 | 27780 ft | 459 kts | 190° |
| 2026-05-07 19:39 | 32.16282 | -84.40486 | 27970 ft | 460 kts | 189° |
| 2026-05-07 19:39 | 32.13066 | -84.40452 | 28165 ft | 462 kts | 189° |
| 2026-05-07 19:39 | 32.09894 | -84.40402 | 28449 ft | 461 kts | 189° |
| 2026-05-07 19:40 | 32.06684 | -84.40341 | 28783 ft | 460 kts | 189° |
| 2026-05-07 19:40 | 32.03493 | -84.40275 | 29108 ft | 459 kts | 189° |
| 2026-05-07 19:40 | 32.00304 | -84.40208 | 29398 ft | 458 kts | 189° |
| 2026-05-07 19:40 | 31.97122 | -84.40143 | 29717 ft | 457 kts | 189° |
| 2026-05-07 19:41 | 31.93937 | -84.40079 | 29999 ft | 457 kts | 188° |
| 2026-05-07 19:41 | 31.90758 | -84.40017 | 30198 ft | 458 kts | 187° |
| 2026-05-07 19:41 | 31.87569 | -84.39954 | 30416 ft | 458 kts | 187° |
| 2026-05-07 19:41 | 31.84380 | -84.39890 | 30728 ft | 457 kts | 187° |
| 2026-05-07 19:42 | 31.81195 | -84.39746 | 31074 ft | 460 kts | 182° |
| 2026-05-07 19:42 | 31.78017 | -84.39051 | 31394 ft | 471 kts | 172° |
| 2026-05-07 19:42 | 31.74884 | -84.37859 | 31713 ft | 473 kts | 170° |
| 2026-05-07 19:42 | 31.71764 | -84.36620 | 32019 ft | 473 kts | 170° |
| 2026-05-07 19:43 | 31.68653 | -84.35385 | 32342 ft | 472 kts | 170° |
| 2026-05-07 19:43 | 31.65581 | -84.34175 | 32652 ft | 471 kts | 170° |
| 2026-05-07 19:43 | 31.62465 | -84.32962 | 32904 ft | 472 kts | 171° |
| 2026-05-07 19:43 | 31.59346 | -84.31761 | 33201 ft | 472 kts | 171° |
| 2026-05-07 19:44 | 31.56227 | -84.30567 | 33432 ft | 472 kts | 171° |
| 2026-05-07 19:44 | 31.53113 | -84.29378 | 33634 ft | 469 kts | 171° |
| 2026-05-07 19:44 | 31.50014 | -84.28196 | 33830 ft | 468 kts | 171° |
| 2026-05-07 19:44 | 31.46902 | -84.27013 | 34002 ft | 470 kts | 171° |
| 2026-05-07 19:45 | 31.40664 | -84.24645 | 33996 ft | 471 kts | 171° |
| 2026-05-07 19:45 | 31.34421 | -84.22273 | 34011 ft | 472 kts | 170° |
| 2026-05-07 19:46 | 31.28150 | -84.19896 | 34004 ft | 476 kts | 170° |
| 2026-05-07 19:46 | 31.21860 | -84.17514 | 33990 ft | 479 kts | 170° |
| 2026-05-07 19:47 | 31.15495 | -84.15105 | 33989 ft | 482 kts | 170° |
| 2026-05-07 19:47 | 31.09108 | -84.12690 | 33976 ft | 483 kts | 169° |
| 2026-05-07 19:48 | 31.02697 | -84.10269 | 34006 ft | 483 kts | 169° |
| 2026-05-07 19:48 | 30.96327 | -84.07869 | 34010 ft | 484 kts | 169° |
| 2026-05-07 19:49 | 30.89909 | -84.05453 | 34014 ft | 484 kts | 169° |
| 2026-05-07 19:49 | 30.83501 | -84.03044 | 34017 ft | 483 kts | 169° |
| 2026-05-07 19:50 | 30.77095 | -84.00640 | 34006 ft | 482 kts | 170° |
| 2026-05-07 19:50 | 30.70743 | -83.98261 | 34011 ft | 482 kts | 170° |
| 2026-05-07 19:51 | 30.64350 | -83.95869 | 34015 ft | 482 kts | 170° |
| 2026-05-07 19:51 | 30.57955 | -83.93480 | 34008 ft | 483 kts | 170° |
| 2026-05-07 19:52 | 30.51547 | -83.91090 | 33992 ft | 483 kts | 170° |
| 2026-05-07 19:52 | 30.45190 | -83.88720 | 33990 ft | 483 kts | 171° |
| 2026-05-07 19:53 | 30.38774 | -83.86333 | 33995 ft | 483 kts | 171° |
| 2026-05-07 19:53 | 30.32359 | -83.83950 | 33996 ft | 484 kts | 171° |
| 2026-05-07 19:54 | 30.25939 | -83.81568 | 33996 ft | 485 kts | 171° |
| 2026-05-07 19:54 | 30.19539 | -83.79196 | 34008 ft | 485 kts | 171° |
| 2026-05-07 19:55 | 30.13113 | -83.76818 | 34027 ft | 485 kts | 171° |
| 2026-05-07 19:55 | 30.06659 | -83.74433 | 34030 ft | 486 kts | 171° |
| 2026-05-07 19:56 | 30.00214 | -83.72055 | 34034 ft | 486 kts | 171° |
| 2026-05-07 19:56 | 29.93809 | -83.69694 | 34017 ft | 485 kts | 171° |
| 2026-05-07 19:57 | 29.87375 | -83.67324 | 34025 ft | 485 kts | 171° |
| 2026-05-07 19:57 | 29.80945 | -83.64961 | 34026 ft | 483 kts | 171° |
| 2026-05-07 19:58 | 29.74539 | -83.62609 | 34017 ft | 482 kts | 171° |
| 2026-05-07 19:58 | 29.68148 | -83.60267 | 34018 ft | 481 kts | 171° |
| 2026-05-07 19:59 | 29.61804 | -83.57945 | 34024 ft | 480 kts | 171° |
| 2026-05-07 19:59 | 29.55446 | -83.55621 | 34027 ft | 480 kts | 171° |
| 2026-05-07 20:00 | 29.49081 | -83.53297 | 34027 ft | 479 kts | 171° |
| 2026-05-07 20:00 | 29.42723 | -83.50979 | 34034 ft | 479 kts | 171° |
| 2026-05-07 20:01 | 29.36358 | -83.48662 | 34013 ft | 480 kts | 170° |
| 2026-05-07 20:01 | 29.29983 | -83.46344 | 34031 ft | 480 kts | 170° |
| 2026-05-07 20:02 | 29.23601 | -83.44026 | 34035 ft | 481 kts | 170° |
| 2026-05-07 20:02 | 29.17201 | -83.41705 | 34037 ft | 482 kts | 170° |
| 2026-05-07 20:03 | 29.10801 | -83.39386 | 34035 ft | 483 kts | 170° |
| 2026-05-07 20:03 | 29.04430 | -83.37081 | 34036 ft | 483 kts | 169° |
| 2026-05-07 20:04 | 28.98019 | -83.34763 | 34034 ft | 483 kts | 169° |
| 2026-05-07 20:04 | 28.91614 | -83.32444 | 34041 ft | 482 kts | 169° |
| 2026-05-07 20:05 | 28.85218 | -83.30101 | 34040 ft | 482 kts | 169° |
| 2026-05-07 20:05 | 28.78863 | -83.27772 | 34023 ft | 481 kts | 169° |
| 2026-05-07 20:06 | 28.72489 | -83.25444 | 34037 ft | 481 kts | 169° |
| 2026-05-07 20:06 | 28.66112 | -83.23118 | 34045 ft | 480 kts | 169° |
| 2026-05-07 20:07 | 28.59740 | -83.20797 | 34043 ft | 480 kts | 169° |
| 2026-05-07 20:07 | 28.53412 | -83.18493 | 34044 ft | 480 kts | 169° |
| 2026-05-07 20:08 | 28.47045 | -83.16163 | 34030 ft | 480 kts | 168° |
| 2026-05-07 20:08 | 28.40683 | -83.13834 | 34040 ft | 480 kts | 168° |
| 2026-05-07 20:09 | 28.34326 | -83.11512 | 34048 ft | 480 kts | 168° |
| 2026-05-07 20:10 | 28.24784 | -83.08033 | 34047 ft | 480 kts | 168° |
| 2026-05-07 20:10 | 28.18415 | -83.05715 | 34023 ft | 480 kts | 168° |
| 2026-05-07 20:11 | 28.12087 | -83.03414 | 34049 ft | 480 kts | 168° |
| 2026-05-07 20:11 | 28.05724 | -83.01034 | 34050 ft | 483 kts | 166° |
| 2026-05-07 20:12 | 27.99438 | -82.98219 | 34056 ft | 486 kts | 163° |
| 2026-05-07 20:12 | 27.93208 | -82.95314 | 34053 ft | 486 kts | 163° |
| 2026-05-07 20:13 | 27.86926 | -82.92439 | 34039 ft | 486 kts | 163° |
| 2026-05-07 20:13 | 27.80646 | -82.89608 | 34053 ft | 486 kts | 164° |
| 2026-05-07 20:14 | 27.74358 | -82.86788 | 34039 ft | 487 kts | 164° |
| 2026-05-07 20:14 | 27.68042 | -82.83957 | 34039 ft | 487 kts | 164° |
| 2026-05-07 20:15 | 27.61778 | -82.81150 | 34044 ft | 487 kts | 164° |
| 2026-05-07 20:15 | 27.55465 | -82.78324 | 34047 ft | 487 kts | 164° |
| 2026-05-07 20:15 | 27.52311 | -82.76914 | 33877 ft | 490 kts | 164° |
| 2026-05-07 20:16 | 27.50191 | -82.75969 | 33319 ft | 498 kts | 164° |
| 2026-05-07 20:16 | 27.46973 | -82.74533 | 32583 ft | 496 kts | 163° |
| 2026-05-07 20:16 | 27.43764 | -82.73098 | 31822 ft | 496 kts | 163° |
| 2026-05-07 20:16 | 27.40580 | -82.71674 | 31274 ft | 490 kts | 164° |
| 2026-05-07 20:17 | 27.37418 | -82.70261 | 30689 ft | 486 kts | 164° |
| 2026-05-07 20:17 | 27.34282 | -82.68863 | 30077 ft | 483 kts | 164° |
| 2026-05-07 20:17 | 27.31171 | -82.67478 | 29416 ft | 479 kts | 164° |
| 2026-05-07 20:17 | 27.28097 | -82.66106 | 28778 ft | 474 kts | 163° |
| 2026-05-07 20:18 | 27.25165 | -82.64383 | 28213 ft | 476 kts | 151° |
| 2026-05-07 20:18 | 27.22447 | -82.62264 | 27658 ft | 473 kts | 148° |
| 2026-05-07 20:18 | 27.19803 | -82.60093 | 27083 ft | 469 kts | 148° |
| 2026-05-07 20:18 | 27.17174 | -82.57937 | 26522 ft | 465 kts | 148° |
| 2026-05-07 20:19 | 27.14553 | -82.55834 | 25966 ft | 461 kts | 149° |
| 2026-05-07 20:19 | 27.11972 | -82.53803 | 25406 ft | 458 kts | 149° |
| 2026-05-07 20:19 | 27.09356 | -82.51771 | 24841 ft | 455 kts | 150° |
| 2026-05-07 20:19 | 27.06753 | -82.49757 | 24261 ft | 452 kts | 149° |
| 2026-05-07 20:20 | 27.04165 | -82.47753 | 23702 ft | 450 kts | 149° |
| 2026-05-07 20:20 | 27.01602 | -82.45761 | 23059 ft | 448 kts | 149° |
| 2026-05-07 20:20 | 26.99066 | -82.43753 | 22476 ft | 444 kts | 148° |
| 2026-05-07 20:20 | 26.96591 | -82.41776 | 21915 ft | 440 kts | 148° |
| 2026-05-07 20:21 | 26.94107 | -82.39793 | 21378 ft | 435 kts | 148° |
| 2026-05-07 20:21 | 26.91645 | -82.37836 | 20843 ft | 431 kts | 148° |
| 2026-05-07 20:21 | 26.89204 | -82.35899 | 20316 ft | 428 kts | 147° |
| 2026-05-07 20:21 | 26.86785 | -82.33984 | 19778 ft | 425 kts | 147° |
| 2026-05-07 20:22 | 26.84377 | -82.32078 | 19246 ft | 422 kts | 147° |
| 2026-05-07 20:22 | 26.81983 | -82.30183 | 18710 ft | 420 kts | 147° |
| 2026-05-07 20:22 | 26.79607 | -82.28303 | 18167 ft | 418 kts | 147° |
| 2026-05-07 20:22 | 26.77242 | -82.26433 | 17584 ft | 415 kts | 147° |
| 2026-05-07 20:23 | 26.74895 | -82.24579 | 17039 ft | 411 kts | 147° |
| 2026-05-07 20:23 | 26.72567 | -82.22739 | 16500 ft | 407 kts | 147° |
| 2026-05-07 20:23 | 26.70296 | -82.20945 | 15975 ft | 399 kts | 147° |
| 2026-05-07 20:23 | 26.68062 | -82.19180 | 15461 ft | 386 kts | 147° |
| 2026-05-07 20:24 | 26.65885 | -82.17462 | 14987 ft | 382 kts | 147° |
| 2026-05-07 20:24 | 26.63722 | -82.15757 | 14496 ft | 379 kts | 146° |
| 2026-05-07 20:24 | 26.61568 | -82.14061 | 14002 ft | 378 kts | 146° |
| 2026-05-07 20:24 | 26.59423 | -82.12371 | 13472 ft | 376 kts | 146° |
| 2026-05-07 20:25 | 26.57292 | -82.10692 | 12964 ft | 373 kts | 146° |
| 2026-05-07 20:25 | 26.55179 | -82.09028 | 12471 ft | 370 kts | 146° |
| 2026-05-07 20:25 | 26.53082 | -82.07378 | 11975 ft | 364 kts | 146° |
| 2026-05-07 20:25 | 26.51043 | -82.05773 | 11492 ft | 352 kts | 146° |
| 2026-05-07 20:26 | 26.49062 | -82.04214 | 11050 ft | 346 kts | 146° |
| 2026-05-07 20:26 | 26.47100 | -82.02675 | 10676 ft | 342 kts | 146° |
| 2026-05-07 20:26 | 26.45211 | -82.01191 | 10520 ft | 331 kts | 146° |
| 2026-05-07 20:26 | 26.43490 | -81.99542 | 10353 ft | 324 kts | 130° |
| 2026-05-07 20:27 | 26.42234 | -81.97510 | 10249 ft | 313 kts | 126° |
| 2026-05-07 20:27 | 26.41027 | -81.95520 | 10113 ft | 303 kts | 126° |
| 2026-05-07 20:27 | 26.39854 | -81.93611 | 9947 ft | 295 kts | 124° |
| 2026-05-07 20:27 | 26.39136 | -81.91473 | 9571 ft | 298 kts | 97° |
| 2026-05-07 20:28 | 26.39176 | -81.89496 | 9325 ft | 297 kts | 83° |
| 2026-05-07 20:28 | 26.39497 | -81.87215 | 8992 ft | 296 kts | 82° |
| 2026-05-07 20:28 | 26.39823 | -81.84945 | 8648 ft | 296 kts | 82° |
| 2026-05-07 20:28 | 26.40131 | -81.82702 | 8309 ft | 296 kts | 82° |
| 2026-05-07 20:29 | 26.40454 | -81.80432 | 7974 ft | 296 kts | 77° |
| 2026-05-07 20:29 | 26.41342 | -81.78377 | 7627 ft | 295 kts | 53° |
| 2026-05-07 20:29 | 26.42566 | -81.76551 | 7294 ft | 294 kts | 53° |
| 2026-05-07 20:29 | 26.43789 | -81.74710 | 6967 ft | 294 kts | 53° |
| 2026-05-07 20:30 | 26.44999 | -81.72867 | 6625 ft | 295 kts | 53° |
| 2026-05-07 20:30 | 26.46204 | -81.71021 | 6266 ft | 292 kts | 53° |
| 2026-05-07 20:30 | 26.47386 | -81.69231 | 5999 ft | 288 kts | 51° |
| 2026-05-07 20:30 | 26.48627 | -81.67491 | 5752 ft | 285 kts | 50° |
| 2026-05-07 20:31 | 26.49883 | -81.65797 | 5497 ft | 281 kts | 49° |
| 2026-05-07 20:31 | 26.51126 | -81.64122 | 5240 ft | 278 kts | 51° |
| 2026-05-07 20:31 | 26.52333 | -81.62449 | 5020 ft | 276 kts | 50° |
| 2026-05-07 20:31 | 26.53529 | -81.60785 | 4785 ft | 273 kts | 51° |
| 2026-05-07 20:32 | 26.54701 | -81.59133 | 4534 ft | 271 kts | 51° |
| 2026-05-07 20:32 | 26.55881 | -81.57511 | 4269 ft | 265 kts | 50° |
| 2026-05-07 20:32 | 26.57046 | -81.55931 | 4061 ft | 260 kts | 50° |
| 2026-05-07 20:32 | 26.58188 | -81.54403 | 3838 ft | 251 kts | 49° |
| 2026-05-07 20:33 | 26.59354 | -81.53033 | 3605 ft | 241 kts | 33° |
| 2026-05-07 20:33 | 26.60860 | -81.52416 | 3348 ft | 226 kts | 359° |
| 2026-05-07 20:33 | 26.62320 | -81.52787 | 3104 ft | 211 kts | 326° |
| 2026-05-07 20:33 | 26.63334 | -81.53862 | 3024 ft | 195 kts | 302° |
| 2026-05-07 20:34 | 26.63884 | -81.55232 | 3017 ft | 193 kts | 286° |
| 2026-05-07 20:34 | 26.64299 | -81.56686 | 3014 ft | 197 kts | 286° |
| 2026-05-07 20:34 | 26.64530 | -81.58187 | 2930 ft | 198 kts | 262° |
| 2026-05-07 20:34 | 26.63973 | -81.59571 | 2738 ft | 195 kts | 236° |
| 2026-05-07 20:35 | 26.63182 | -81.60793 | 2529 ft | 192 kts | 235° |
| 2026-05-07 20:35 | 26.62422 | -81.61964 | 2295 ft | 184 kts | 236° |
| 2026-05-07 20:35 | 26.61696 | -81.63095 | 2080 ft | 175 kts | 236° |
| 2026-05-07 20:35 | 26.60988 | -81.64197 | 1909 ft | 174 kts | 236° |
| 2026-05-07 20:36 | 26.60269 | -81.65302 | 1773 ft | 177 kts | 236° |
| 2026-05-07 20:36 | 26.59538 | -81.66422 | 1616 ft | 175 kts | 236° |
| 2026-05-07 20:36 | 26.58848 | -81.67476 | 1484 ft | 161 kts | 236° |
| 2026-05-07 20:36 | 26.58209 | -81.68455 | 1294 ft | 151 kts | 237° |
| 2026-05-07 20:37 | 26.57608 | -81.69379 | 1092 ft | 145 kts | 236° |
| 2026-05-07 20:37 | 26.57009 | -81.70295 | 916 ft | 144 kts | 236° |
| 2026-05-07 20:37 | 26.56418 | -81.71197 | 729 ft | 147 kts | 236° |
| 2026-05-07 20:37 | 26.55817 | -81.72120 | 523 ft | 147 kts | 236° |
| 2026-05-07 20:38 | 26.55214 | -81.73054 | 363 ft | 150 kts | 236° |
| 2026-05-07 20:38 | 26.54602 | -81.74001 | 117 ft | 150 kts | 237° |
| 2026-05-07 20:38 | 26.54015 | -81.74904 | 44 ft | 128 kts | 234° |
| 2026-05-07 20:38 | 26.53623 | -81.75507 | 41 ft | 64 kts | 234° |
| 2026-05-07 20:39 | 26.53454 | -81.75724 | 43 ft | 17 kts | 210° |
| 2026-05-07 20:39 | 26.53373 | -81.75766 | 44 ft | 11 kts | 201° |
| 2026-05-07 20:39 | 26.53303 | -81.75806 | 44 ft | 11 kts | 218° |
| 2026-05-07 20:39 | 26.53254 | -81.75856 | 44 ft | 8 kts | 210° |
| 2026-05-07 20:40 | 26.53204 | -81.75849 | 44 ft | 8 kts | 149° |
| 2026-05-07 20:40 | 26.53155 | -81.75810 | 43 ft | 9 kts | 144° |
| 2026-05-07 20:40 | 26.53099 | -81.75765 | 43 ft | 10 kts | 144° |
| 2026-05-07 20:40 | 26.53043 | -81.75720 | 43 ft | 10 kts | 144° |
| 2026-05-07 20:41 | 26.52988 | -81.75676 | 43 ft | 9 kts | 144° |
| 2026-05-07 20:41 | 26.52945 | -81.75640 | 43 ft | 7 kts | 137° |
| 2026-05-07 20:41 | 26.52928 | -81.75594 | 43 ft | 6 kts | 101° |
| 2026-05-07 20:41 | 26.52924 | -81.75567 | 43 ft | 2 kts | 99° |
| 2026-05-07 20:42 | 26.52922 | -81.75558 | 43 ft | 0 kts | 99° |